createdAt,value
2022-11-06T00:00:46.848Z,90.83
2022-11-06T00:03:14.966Z,106.93
2022-11-06T00:06:01.333Z,121.60
2022-11-06T00:08:36.147Z,94.50
2022-11-06T00:11:10.905Z,92.93
2022-11-06T00:13:39.073Z,91.43
2022-11-06T00:16:09.461Z,88.17
2022-11-06T00:18:38.727Z,80.03
2022-11-06T00:21:10.293Z,87.60
2022-11-06T00:23:39.732Z,81.73
2022-11-06T00:26:09.347Z,77.57
2022-11-06T00:28:38.028Z,82.20
2022-11-06T00:31:07.405Z,71.60
2022-11-06T00:33:35.918Z,71.80
2022-11-06T00:36:05.217Z,68.53
2022-11-06T00:38:33.469Z,60.77
2022-11-06T00:41:06.261Z,57.07
2022-11-06T00:43:35.952Z,78.80
2022-11-06T00:46:04.191Z,61.70
2022-11-06T00:48:32.473Z,59.43
2022-11-06T00:51:03.729Z,63.57
2022-11-06T00:53:31.948Z,64.47
2022-11-06T00:56:07.478Z,59.70
2022-11-06T00:58:36.214Z,66.60
2022-11-06T01:01:08.850Z,54.37
2022-11-06T01:03:37.208Z,56.97
2022-11-06T01:06:07.313Z,58.73
2022-11-06T01:08:35.429Z,50.43
2022-11-06T01:11:10.384Z,50.73
2022-11-06T01:13:38.982Z,56.40
2022-11-06T01:16:08.930Z,48.93
2022-11-06T01:18:38.402Z,46.77
2022-11-06T01:21:07.882Z,45.07
2022-11-06T01:23:36.385Z,46.40
2022-11-06T01:26:06.502Z,46.23
2022-11-06T01:28:36.442Z,50.67
2022-11-06T01:31:06.546Z,44.73
2022-11-06T01:33:34.688Z,36.30
2022-11-06T01:36:02.785Z,42.63
2022-11-06T01:38:30.981Z,34.57
2022-11-06T01:40:59.124Z,37.23
2022-11-06T01:43:48.966Z,35.67
2022-11-06T01:46:17.575Z,39.90
2022-11-06T01:48:50.022Z,33.03
2022-11-06T01:51:19.197Z,26.03
2022-11-06T01:53:47.668Z,30.40
2022-11-06T01:56:16.570Z,37.80
2022-11-06T01:58:47.894Z,25.33
2022-11-06T02:01:17.268Z,24.93
2022-11-06T02:03:54.366Z,24.77
2022-11-06T02:06:23.581Z,25.10
2022-11-06T02:08:51.770Z,21.67
2022-11-06T02:11:19.999Z,23.10
2022-11-06T02:14:02.599Z,18.60
2022-11-06T02:16:40.036Z,27.20
2022-11-06T02:19:31.678Z,23.03
2022-11-06T02:22:26.428Z,19.80
2022-11-06T02:25:17.968Z,31.00
2022-11-06T02:27:51.530Z,34.90
2022-11-06T02:30:20.078Z,25.37
2022-11-06T02:32:54.907Z,30.13
2022-11-06T02:35:28.100Z,39.97
2022-11-06T02:38:01.118Z,41.60
2022-11-06T02:40:34.799Z,41.33
2022-11-06T02:43:08.272Z,36.57
2022-11-06T02:45:43.328Z,42.40
2022-11-06T02:48:13.917Z,35.20
2022-11-06T02:50:46.057Z,47.70
2022-11-06T02:53:16.587Z,46.17
2022-11-06T02:55:48.936Z,51.30
2022-11-06T02:58:21.779Z,47.00
2022-11-06T03:00:55.926Z,56.93
2022-11-06T03:03:27.756Z,52.63
2022-11-06T03:06:02.341Z,51.83
2022-11-06T03:08:37.317Z,57.90
2022-11-06T03:11:13.552Z,66.13
2022-11-06T03:13:52.381Z,53.77
2022-11-06T03:16:30.162Z,61.43
2022-11-06T03:19:05.079Z,52.07
2022-11-06T03:21:40.021Z,48.90
2022-11-06T03:24:15.737Z,51.50
2022-11-06T03:26:48.622Z,57.77
2022-11-06T03:29:22.604Z,45.27
2022-11-06T03:31:55.385Z,49.47
2022-11-06T03:34:31.281Z,53.57
2022-11-06T03:37:05.044Z,56.60
2022-11-06T03:39:38.929Z,49.37
2022-11-06T03:42:10.921Z,57.20
2022-11-06T03:44:43.625Z,43.63
2022-11-06T03:47:16.462Z,52.60
2022-11-06T03:49:50.852Z,54.13
2022-11-06T03:52:26.489Z,48.57
2022-11-06T03:55:00.934Z,54.73
2022-11-06T03:57:36.345Z,65.70
2022-11-06T04:00:08.046Z,64.10
2022-11-06T04:02:39.944Z,63.73
2022-11-06T04:05:12.502Z,59.13
2022-11-06T04:08:06.703Z,55.93
2022-11-06T04:10:54.003Z,48.60
2022-11-06T04:13:42.351Z,60.57
2022-11-06T04:16:13.458Z,64.10
2022-11-06T04:18:41.578Z,55.90
2022-11-06T04:21:26.048Z,61.33
2022-11-06T04:24:35.047Z,53.37
2022-11-06T04:27:24.842Z,49.90
2022-11-06T04:30:06.633Z,47.73
2022-11-06T04:32:48.904Z,42.77
2022-11-06T04:35:25.284Z,46.50
2022-11-06T04:38:02.924Z,47.77
2022-11-06T04:40:40.454Z,42.53
2022-11-06T04:43:16.041Z,38.67
2022-11-06T04:45:48.831Z,52.00
2022-11-06T04:48:19.679Z,48.20
2022-11-06T04:50:52.509Z,55.80
2022-11-06T04:53:23.490Z,46.03
2022-11-06T04:55:54.235Z,43.57
2022-11-06T04:58:22.276Z,45.07
2022-11-06T05:00:51.963Z,50.07
2022-11-06T05:03:21.530Z,54.93
2022-11-06T05:05:49.714Z,60.37
2022-11-06T05:08:19.833Z,50.77
2022-11-06T05:10:48.683Z,62.93
2022-11-06T05:13:17.369Z,58.90
2022-11-06T05:15:45.723Z,57.67
2022-11-06T05:18:13.914Z,67.07
2022-11-06T05:20:43.578Z,67.53
2022-11-06T05:23:10.798Z,50.50
2022-11-06T05:25:40.623Z,59.47
2022-11-06T05:31:49.311Z,61.93
2022-11-06T05:34:17.439Z,47.40
2022-11-06T05:36:47.214Z,46.30
2022-11-06T05:39:15.345Z,49.63
2022-11-06T05:41:43.924Z,61.03
2022-11-06T05:44:12.283Z,45.47
2022-11-06T05:46:48.619Z,42.93
2022-11-06T05:49:17.180Z,53.23
2022-11-06T05:51:46.645Z,50.53
2022-11-06T05:54:15.381Z,41.00
2022-11-06T05:56:43.541Z,40.27
2022-11-06T05:59:11.751Z,58.70
2022-11-06T06:01:39.996Z,54.27
2022-11-06T06:04:08.117Z,33.67
2022-11-06T06:06:37.115Z,37.53
2022-11-06T06:09:06.615Z,40.53
2022-11-06T06:11:35.103Z,36.70
2022-11-06T06:14:03.318Z,37.27
2022-11-06T06:16:31.403Z,35.93
2022-11-06T06:18:59.597Z,35.27
2022-11-06T06:21:27.638Z,46.50
2022-11-06T06:23:55.715Z,47.17
2022-11-06T06:26:25.368Z,39.43
2022-11-06T06:28:53.441Z,28.47
2022-11-06T06:31:21.650Z,46.53
2022-11-06T06:33:49.802Z,41.47
2022-11-06T06:36:18.290Z,43.70
2022-11-06T06:38:46.434Z,39.43
2022-11-06T06:41:14.495Z,36.83
2022-11-06T06:43:44.040Z,40.20
2022-11-06T06:46:12.104Z,38.60
2022-11-06T06:48:40.326Z,40.33
2022-11-06T06:51:09.002Z,34.07
2022-11-06T06:53:37.914Z,39.13
2022-11-06T06:56:06.489Z,34.17
2022-11-06T06:58:34.873Z,33.83
2022-11-06T07:01:06.848Z,43.17
2022-11-06T07:03:35.004Z,34.53
2022-11-06T07:06:03.355Z,34.47
2022-11-06T07:08:31.759Z,27.80
2022-11-06T07:11:01.393Z,33.63
2022-11-06T07:13:35.546Z,35.90
2022-11-06T07:16:07.076Z,28.73
2022-11-06T07:18:35.521Z,32.87
2022-11-06T07:21:06.254Z,36.97
2022-11-06T07:23:35.610Z,35.60
2022-11-06T07:26:04.258Z,35.17
2022-11-06T07:28:32.523Z,35.73
2022-11-06T07:31:01.391Z,31.47
2022-11-06T07:33:31.165Z,34.93
2022-11-06T07:36:04.134Z,30.50
2022-11-06T07:38:33.869Z,47.50
2022-11-06T07:41:04.400Z,36.70
2022-11-06T07:43:32.780Z,27.60
2022-11-06T07:46:01.906Z,32.47
2022-11-06T07:48:32.181Z,25.53
2022-11-06T07:51:03.284Z,30.20
2022-11-06T07:53:31.383Z,27.30
2022-11-06T07:55:59.801Z,23.63
2022-11-06T07:58:28.578Z,21.33
2022-11-06T08:00:59.666Z,28.10
2022-11-06T08:03:30.483Z,25.87
2022-11-06T08:06:00.448Z,46.17
2022-11-06T08:08:29.565Z,33.07
2022-11-06T08:10:57.694Z,22.80
2022-11-06T08:13:26.587Z,29.73
2022-11-06T08:15:54.647Z,28.90
2022-11-06T08:18:22.726Z,30.20
2022-11-06T08:20:54.235Z,36.90
2022-11-06T08:23:23.684Z,27.43
2022-11-06T08:25:55.211Z,30.07
2022-11-06T08:28:23.326Z,24.77
2022-11-06T08:30:51.772Z,26.53
2022-11-06T08:33:20.615Z,25.57
2022-11-06T08:35:49.030Z,41.03
2022-11-06T08:38:17.553Z,24.60
2022-11-06T08:40:52.277Z,26.30
2022-11-06T08:43:23.549Z,37.67
2022-11-06T08:45:51.686Z,32.23
2022-11-06T08:48:19.855Z,33.03
2022-11-06T08:50:48.047Z,26.53
2022-11-06T08:53:16.629Z,32.83
2022-11-06T08:55:46.385Z,34.77
2022-11-06T08:58:14.760Z,33.03
2022-11-06T09:00:43.107Z,27.47
2022-11-06T09:03:14.154Z,32.97
2022-11-06T09:05:43.226Z,33.23
2022-11-06T09:08:11.552Z,40.20
2022-11-06T09:10:40.851Z,28.50
2022-11-06T09:13:11.129Z,24.47
2022-11-06T09:15:40.228Z,30.20
2022-11-06T09:18:08.552Z,28.27
2022-11-06T09:20:37.009Z,26.57
2022-11-06T09:23:07.519Z,23.13
2022-11-06T09:25:35.654Z,24.83
2022-11-06T09:28:03.755Z,25.60
2022-11-06T09:30:33.855Z,27.27
2022-11-06T09:33:04.718Z,27.17
2022-11-06T09:35:36.159Z,30.17
2022-11-06T09:38:05.338Z,29.73
2022-11-06T09:40:37.007Z,32.17
2022-11-06T09:43:50.037Z,30.50
2022-11-06T09:46:23.697Z,17.77
2022-11-06T09:48:58.299Z,27.20
2022-11-06T09:51:35.194Z,32.13
2022-11-06T09:54:12.072Z,30.63
2022-11-06T09:56:42.530Z,25.37
2022-11-06T09:59:15.117Z,22.97
2022-11-06T10:01:48.890Z,27.20
2022-11-06T10:04:37.655Z,25.10
2022-11-06T10:07:05.897Z,25.67
2022-11-06T10:09:34.012Z,28.60
2022-11-06T10:12:14.815Z,30.30
2022-11-06T10:14:54.474Z,24.17
2022-11-06T10:17:39.632Z,31.27
2022-11-06T10:20:23.673Z,22.80
2022-11-06T10:23:04.735Z,25.67
2022-11-06T10:25:51.589Z,27.03
2022-11-06T10:29:07.301Z,23.90
2022-11-06T10:31:44.900Z,24.07
2022-11-06T10:34:19.335Z,24.20
2022-11-06T10:36:52.086Z,28.43
2022-11-06T10:39:23.677Z,30.17
2022-11-06T10:41:57.236Z,25.10
2022-11-06T10:44:29.899Z,25.87
2022-11-06T10:47:04.955Z,24.80
2022-11-06T10:49:41.404Z,33.87
2022-11-06T10:52:25.477Z,24.43
2022-11-06T10:55:04.942Z,32.93
2022-11-06T10:57:43.311Z,20.20
2022-11-06T11:00:13.927Z,23.27
2022-11-06T11:02:47.501Z,33.30
2022-11-06T11:05:19.277Z,21.37
2022-11-06T11:07:49.071Z,30.93
2022-11-06T11:10:31.862Z,29.40
2022-11-06T11:13:06.931Z,25.07
2022-11-06T11:15:45.207Z,21.53
2022-11-06T11:18:19.067Z,25.50
2022-11-06T11:20:49.943Z,26.97
2022-11-06T11:23:20.484Z,28.57
2022-11-06T11:25:50.713Z,40.87
2022-11-06T11:28:26.344Z,35.43
2022-11-06T11:30:56.499Z,36.13
2022-11-06T11:33:27.214Z,22.80
2022-11-06T11:35:56.942Z,37.50
2022-11-06T11:38:26.195Z,20.23
2022-11-06T11:41:08.149Z,21.33
2022-11-06T11:43:36.764Z,19.30
2022-11-06T11:46:27.494Z,23.37
2022-11-06T11:48:57.654Z,16.00
2022-11-06T11:51:31.168Z,21.67
2022-11-06T11:54:05.092Z,25.93
2022-11-06T11:57:02.925Z,38.13
2022-11-06T11:59:24.158Z,31.50
2022-11-06T12:01:53.899Z,23.57
2022-11-06T12:04:29.646Z,24.07
2022-11-06T12:07:02.097Z,29.70
2022-11-06T12:09:34.109Z,22.60
2022-11-06T12:12:03.142Z,15.07
2022-11-06T12:14:37.304Z,28.57
2022-11-06T12:17:13.038Z,27.13
2022-11-06T12:19:43.437Z,24.70
2022-11-06T12:22:20.073Z,21.93
2022-11-06T12:24:54.286Z,23.67
2022-11-06T12:27:27.267Z,23.37
2022-11-06T12:30:03.979Z,20.10
2022-11-06T12:32:45.851Z,22.40
2022-11-06T12:35:25.211Z,25.50
2022-11-06T12:38:01.925Z,22.60
2022-11-06T12:40:31.828Z,22.77
2022-11-06T12:43:16.819Z,31.17
2022-11-06T12:45:58.563Z,23.77
2022-11-06T12:49:08.218Z,26.73
2022-11-06T12:51:49.482Z,23.47
2022-11-06T12:54:40.204Z,27.10
2022-11-06T12:57:18.260Z,20.23
2022-11-06T13:00:00.340Z,28.30
2022-11-06T13:02:44.715Z,22.67
2022-11-06T13:05:18.387Z,23.70
2022-11-06T13:08:14.687Z,21.73
2022-11-06T13:10:52.853Z,19.00
2022-11-06T13:13:36.040Z,30.20
2022-11-06T13:16:16.403Z,21.97
2022-11-06T13:18:52.980Z,24.53
2022-11-06T13:21:33.111Z,21.10
2022-11-06T13:24:08.208Z,20.80
2022-11-06T13:26:43.987Z,30.73
2022-11-06T13:29:15.930Z,28.30
2022-11-06T13:31:52.554Z,25.03
2022-11-06T13:34:25.800Z,20.43
2022-11-06T13:36:55.891Z,31.63
2022-11-06T13:39:31.041Z,22.73
2022-11-06T13:42:01.807Z,23.43
2022-11-06T13:44:30.975Z,27.83
2022-11-06T13:47:08.932Z,36.93
2022-11-06T13:49:46.861Z,21.57
2022-11-06T13:52:22.802Z,23.90
2022-11-06T13:55:07.823Z,19.83
2022-11-06T13:57:51.136Z,22.20
2022-11-06T14:00:24.005Z,17.87
2022-11-06T14:03:32.319Z,16.37
2022-11-06T14:06:04.042Z,19.60
2022-11-06T14:08:36.569Z,20.27
2022-11-06T14:11:12.660Z,22.90
2022-11-06T14:13:42.896Z,23.33
2022-11-06T14:16:28.515Z,20.93
2022-11-06T14:18:58.683Z,20.73
2022-11-06T14:21:51.653Z,31.20
2022-11-06T14:24:41.068Z,32.43
2022-11-06T14:27:15.074Z,15.50
2022-11-06T14:30:07.862Z,20.63
2022-11-06T14:32:52.738Z,29.13
2022-11-06T14:35:51.906Z,22.73
2022-11-06T14:38:35.879Z,32.30
2022-11-06T14:41:44.900Z,33.23
2022-11-06T14:44:21.805Z,22.03
2022-11-06T14:46:55.142Z,20.20
2022-11-06T14:49:38.346Z,22.20
2022-11-06T14:52:09.166Z,25.67
2022-11-06T14:54:41.023Z,21.00
2022-11-06T14:57:12.988Z,16.27
2022-11-06T14:59:42.756Z,19.90
2022-11-06T15:02:20.457Z,22.47
2022-11-06T15:04:54.738Z,24.20
2022-11-06T15:08:07.851Z,19.50
2022-11-06T15:10:51.822Z,22.00
2022-11-06T15:13:30.046Z,19.73
2022-11-06T15:16:11.722Z,18.17
2022-11-06T15:18:44.931Z,16.33
2022-11-06T15:21:22.678Z,27.57
2022-11-06T15:23:59.787Z,20.13
2022-11-06T15:26:29.997Z,27.63
2022-11-06T15:29:12.955Z,22.60
2022-11-06T15:31:44.408Z,25.03
2022-11-06T15:34:21.489Z,21.23
2022-11-06T15:36:54.945Z,24.53
2022-11-06T15:39:24.501Z,29.10
2022-11-06T15:41:53.298Z,15.50
2022-11-06T15:44:23.451Z,18.53
2022-11-06T15:46:55.278Z,19.83
2022-11-06T15:49:25.046Z,22.67
2022-11-06T15:51:55.247Z,21.47
2022-11-06T15:54:37.896Z,25.30
2022-11-06T15:57:14.710Z,23.37
2022-11-06T15:59:42.938Z,13.33
2022-11-06T16:02:18.552Z,17.33
2022-11-06T16:04:49.046Z,19.13
2022-11-06T16:07:19.694Z,12.93
2022-11-06T16:09:48.384Z,28.60
2022-11-06T16:12:19.504Z,19.53
2022-11-06T16:14:47.606Z,22.23
2022-11-06T16:17:19.984Z,16.20
2022-11-06T16:19:51.442Z,14.00
2022-11-06T16:22:22.664Z,20.53
2022-11-06T16:24:54.818Z,18.73
2022-11-06T16:27:25.307Z,19.13
2022-11-06T16:29:55.738Z,13.97
2022-11-06T16:32:27.165Z,14.00
2022-11-06T16:34:56.769Z,13.27
2022-11-06T16:37:40.164Z,22.90
2022-11-06T16:40:41.921Z,15.40
2022-11-06T16:43:15.361Z,26.87
2022-11-06T16:45:54.416Z,20.47
2022-11-06T16:48:35.724Z,11.47
2022-11-06T16:51:11.160Z,21.03
2022-11-06T16:53:52.422Z,19.10
2022-11-06T16:56:25.907Z,11.47
2022-11-06T16:58:57.945Z,24.03
2022-11-06T17:01:27.088Z,19.70
2022-11-06T17:03:59.447Z,17.73
2022-11-06T17:06:31.244Z,13.50
2022-11-06T17:09:07.888Z,18.90
2022-11-06T17:11:37.357Z,14.93
2022-11-06T17:14:17.336Z,18.43
2022-11-06T17:16:50.752Z,15.80
2022-11-06T17:19:19.423Z,22.73
2022-11-06T17:21:49.427Z,20.90
2022-11-06T17:24:35.894Z,14.90
2022-11-06T17:27:04.402Z,13.57
2022-11-06T17:29:33.982Z,21.30
2022-11-06T17:32:02.038Z,13.80
2022-11-06T17:34:30.581Z,23.00
2022-11-06T17:37:00.169Z,18.47
2022-11-06T17:39:28.238Z,25.63
2022-11-06T17:41:56.289Z,13.23
2022-11-06T17:44:24.453Z,22.17
2022-11-06T17:46:52.609Z,14.47
2022-11-06T17:49:20.753Z,18.33
2022-11-06T17:51:53.611Z,13.93
2022-11-06T17:54:25.432Z,19.23
2022-11-06T17:56:54.769Z,16.17
2022-11-06T17:59:23.965Z,21.40
2022-11-06T18:01:52.803Z,18.83
2022-11-06T18:04:22.379Z,22.83
2022-11-06T18:06:52.364Z,18.27
2022-11-06T18:09:22.663Z,29.07
2022-11-06T18:11:51.518Z,16.73
2022-11-06T18:14:20.148Z,17.43
2022-11-06T18:16:48.492Z,14.43
2022-11-06T18:19:18.451Z,13.83
2022-11-06T18:21:47.015Z,12.87
2022-11-06T18:24:15.411Z,17.17
2022-11-06T18:26:45.005Z,15.50
2022-11-06T18:29:14.595Z,18.17
2022-11-06T18:31:43.035Z,22.30
2022-11-06T18:34:18.373Z,12.57
2022-11-06T18:36:49.062Z,23.13
2022-11-06T18:39:17.358Z,20.30
2022-11-06T18:41:47.021Z,24.23
2022-11-06T18:44:17.605Z,12.73
2022-11-06T18:46:46.317Z,19.97
2022-11-06T18:49:14.691Z,13.07
2022-11-06T18:51:42.769Z,10.97
2022-11-06T18:54:12.456Z,14.60
2022-11-06T18:56:40.542Z,17.20
2022-11-06T18:59:14.894Z,13.47
2022-11-06T19:01:43.159Z,17.83
2022-11-06T19:04:11.460Z,18.63
2022-11-06T19:06:40.322Z,9.53
2022-11-06T19:09:09.423Z,20.50
2022-11-06T19:11:37.724Z,13.53
2022-11-06T19:14:05.987Z,16.33
2022-11-06T19:16:35.461Z,17.17
2022-11-06T19:19:05.778Z,16.77
2022-11-06T19:21:34.751Z,20.63
2022-11-06T19:24:05.842Z,20.07
2022-11-06T19:26:35.510Z,13.03
2022-11-06T19:29:05.139Z,21.40
2022-11-06T19:31:34.179Z,15.00
2022-11-06T19:34:05.020Z,17.13
2022-11-06T19:36:33.528Z,19.53
2022-11-06T19:39:01.729Z,16.10
2022-11-06T19:41:30.135Z,12.10
2022-11-06T19:43:58.205Z,15.40
2022-11-06T19:46:32.328Z,24.17
2022-11-06T19:49:05.889Z,17.67
2022-11-06T19:51:34.547Z,24.43
2022-11-06T19:54:02.855Z,26.33
2022-11-06T19:56:30.977Z,15.50
2022-11-06T19:58:59.399Z,20.70
2022-11-06T20:01:27.637Z,12.90
2022-11-06T20:03:55.782Z,10.33
2022-11-06T20:06:27.571Z,10.00
2022-11-06T20:08:55.734Z,10.97
2022-11-06T20:11:24.081Z,19.97
2022-11-06T20:13:52.271Z,13.13
2022-11-06T20:16:22.046Z,17.17
2022-11-06T20:18:54.012Z,15.53
2022-11-06T20:21:22.506Z,10.23
2022-11-06T20:23:52.049Z,13.03
2022-11-06T20:26:20.275Z,12.97
2022-11-06T20:28:48.672Z,10.43
2022-11-06T20:31:19.447Z,19.87
2022-11-06T20:33:48.062Z,17.30
2022-11-06T20:36:18.929Z,13.73
2022-11-06T20:38:47.700Z,13.37
2022-11-06T20:41:17.613Z,12.00
2022-11-06T20:43:46.272Z,16.30
2022-11-06T20:46:15.622Z,15.10
2022-11-06T20:48:45.312Z,13.13
2022-11-06T20:51:15.173Z,9.93
2022-11-06T20:53:43.436Z,13.77
2022-11-06T20:56:14.136Z,17.60
2022-11-06T20:58:44.153Z,9.60
2022-11-06T21:01:14.609Z,18.17
2022-11-06T21:03:42.766Z,21.77
2022-11-06T21:06:11.416Z,14.87
2022-11-06T21:08:41.372Z,21.10
2022-11-06T21:11:12.626Z,9.50
2022-11-06T21:13:41.562Z,11.70
2022-11-06T21:16:14.109Z,14.37
2022-11-06T21:18:43.079Z,36.60
2022-11-06T21:21:12.821Z,30.90
2022-11-06T21:23:41.799Z,12.80
2022-11-06T21:26:12.370Z,25.43
2022-11-06T21:28:41.630Z,18.90
2022-11-06T21:31:12.579Z,20.23
2022-11-06T21:33:41.751Z,40.40
2022-11-06T21:36:12.198Z,14.00
2022-11-06T21:38:40.796Z,19.23
2022-11-06T21:41:09.837Z,27.00
2022-11-06T21:43:38.156Z,18.47
2022-11-06T21:46:08.334Z,18.57
2022-11-06T21:48:47.327Z,16.93
2022-11-06T21:51:18.232Z,15.23
2022-11-06T21:54:03.919Z,15.63
2022-11-06T21:56:32.285Z,11.80
2022-11-06T21:59:01.626Z,19.03
2022-11-06T22:01:31.876Z,12.73
2022-11-06T22:04:02.080Z,15.93
2022-11-06T22:06:30.976Z,19.70
2022-11-06T22:09:02.331Z,13.33
2022-11-06T22:11:32.294Z,11.40
2022-11-06T22:14:03.020Z,16.77
2022-11-06T22:16:32.639Z,14.70
2022-11-06T22:19:02.269Z,10.33
2022-11-06T22:21:31.635Z,16.33
2022-11-06T22:23:59.852Z,17.10
2022-11-06T22:26:30.240Z,18.23
2022-11-06T22:29:00.564Z,12.27
2022-11-06T22:31:29.654Z,26.23
2022-11-06T22:33:59.135Z,14.70
2022-11-06T22:36:28.847Z,10.33
2022-11-06T22:38:57.807Z,10.07
2022-11-06T22:41:26.450Z,15.00
2022-11-06T22:43:59.259Z,7.23
2022-11-06T22:46:27.959Z,28.60
2022-11-06T22:48:56.459Z,14.77
2022-11-06T22:51:26.783Z,12.03
2022-11-06T22:53:56.903Z,12.00
2022-11-06T22:56:26.679Z,21.87
2022-11-06T22:58:55.638Z,18.47
2022-11-06T23:01:25.512Z,23.80
2022-11-06T23:03:56.820Z,16.17
2022-11-06T23:06:25.938Z,12.90
2022-11-06T23:08:55.907Z,14.30
2022-11-06T23:11:25.628Z,13.17
2022-11-06T23:13:54.191Z,8.50
2022-11-06T23:16:38.907Z,22.03
2022-11-06T23:19:07.050Z,11.13
2022-11-06T23:21:35.253Z,12.73
2022-11-06T23:24:06.011Z,15.37
2022-11-06T23:26:34.132Z,15.10
2022-11-06T23:29:02.409Z,17.77
2022-11-06T23:31:30.781Z,8.80
2022-11-06T23:33:58.847Z,10.07
2022-11-06T23:36:27.011Z,10.83
2022-11-06T23:38:55.726Z,14.30
2022-11-06T23:41:42.413Z,17.53
2022-11-06T23:44:30.865Z,17.07
2022-11-06T23:46:58.520Z,16.60
2022-11-06T23:49:26.658Z,14.17
2022-11-06T23:51:55.019Z,12.50
2022-11-06T23:54:23.214Z,6.80
2022-11-06T23:56:52.752Z,17.90
2022-11-06T23:59:20.919Z,12.03
